Time,TemperatureF,DewpointF,PressureIn,WindDirection,WindDirectionDegrees,WindSpeedMPH,WindSpeedGustMPH,Humidity,HourlyPrecipIn,Conditions,Clouds,dailyrainin,SoftwareType,DateUTC
2013-03-07 00:01:00,24.0,19.0,-100.00,WSW,257,22.0,34.0,82,0.00,,,-99.99,,2013-03-07 07:01:00,
2013-03-07 00:11:00,-999.0,-99.9,-100.00,West,264,20.0,31.0,-999,-99.99,,,-99.99,,2013-03-07 07:11:00,
2013-03-07 00:21:00,24.0,18.0,-100.00,West,264,27.0,40.0,77,0.00,,,-99.99,,2013-03-07 07:21:00,
2013-03-07 00:31:00,24.0,17.0,-100.00,WSW,257,31.0,42.0,74,0.00,,,-99.99,,2013-03-07 07:31:00,
2013-03-07 00:41:00,24.0,17.0,-100.00,WSW,251,29.0,40.0,73,0.00,,,-99.99,,2013-03-07 07:41:00,
2013-03-07 00:51:00,24.0,16.0,-100.00,WSW,257,32.0,47.0,70,0.00,,,-99.99,,2013-03-07 07:51:00,
2013-03-07 01:01:00,24.0,14.0,-100.00,West,261,27.0,42.0,67,0.00,,,-99.99,,2013-03-07 08:01:00,
2013-03-07 01:11:00,24.0,14.0,-100.00,West,263,27.0,42.0,66,0.00,,,-99.99,,2013-03-07 08:11:00,
2013-03-07 01:21:00,24.0,12.0,-100.00,West,261,32.0,47.0,60,0.00,,,-99.99,,2013-03-07 08:21:00,
2013-03-07 01:31:00,24.0,11.0,-100.00,West,261,31.0,44.0,58,0.00,,,-99.99,,2013-03-07 08:31:00,
2013-03-07 01:42:00,24.0,10.0,-100.00,West,263,33.0,50.0,56,0.00,,,-99.99,,2013-03-07 08:42:00,
2013-03-07 01:52:00,23.0,8.0,-100.00,West,261,34.0,49.0,52,0.00,,,-99.99,,2013-03-07 08:52:00,
2013-03-07 02:01:00,23.0,8.0,-100.00,West,263,32.0,52.0,52,0.00,,,-99.99,,2013-03-07 09:01:00,
2013-03-07 02:11:00,23.0,8.0,-100.00,West,261,30.0,44.0,50,0.00,,,-99.99,,2013-03-07 09:11:00,
2013-03-07 02:21:00,23.0,8.0,-100.00,West,260,36.0,52.0,53,0.00,,,-99.99,,2013-03-07 09:21:00,
2013-03-07 02:31:00,22.0,8.0,-100.00,WSW,257,37.0,52.0,53,0.00,,,-99.99,,2013-03-07 09:31:00,
2013-03-07 02:41:00,22.0,8.0,-100.00,WSW,253,38.0,51.0,53,0.00,,,-99.99,,2013-03-07 09:41:00,
2013-03-07 02:51:00,22.0,7.0,-100.00,WSW,253,40.0,54.0,52,0.00,,,-99.99,,2013-03-07 09:51:00,
2013-03-07 03:01:00,22.0,8.0,-100.00,WSW,251,39.0,54.0,55,0.00,,,-99.99,,2013-03-07 10:01:00,
2013-03-07 03:11:00,22.0,8.0,-100.00,WSW,253,40.0,56.0,53,0.00,,,-99.99,,2013-03-07 10:11:00,
2013-03-07 03:21:00,22.0,7.0,-100.00,WSW,250,44.0,60.0,51,0.00,,,-99.99,,2013-03-07 10:21:00,
2013-03-07 03:31:00,22.0,6.0,-100.00,WSW,250,45.0,60.0,51,0.00,,,-99.99,,2013-03-07 10:31:00,
2013-03-07 03:41:00,22.0,7.0,-100.00,WSW,256,41.0,59.0,52,0.00,,,-99.99,,2013-03-07 10:41:00,
2013-03-07 03:51:00,22.0,6.0,-100.00,WSW,251,41.0,57.0,51,0.00,,,-99.99,,2013-03-07 10:51:00,
2013-03-07 04:01:00,22.0,6.0,-100.00,WSW,246,41.0,54.0,52,0.00,,,-99.99,,2013-03-07 11:01:00,
2013-03-07 04:11:00,22.0,6.0,-100.00,WSW,250,39.0,52.0,52,0.00,,,-99.99,,2013-03-07 11:11:00,
2013-03-07 04:21:00,21.0,6.0,-100.00,WSW,250,32.0,47.0,52,0.00,,,-99.99,,2013-03-07 11:21:00,
2013-03-07 04:32:00,21.0,7.0,-100.00,WSW,253,32.0,47.0,53,0.00,,,-99.99,,2013-03-07 11:32:00,
2013-03-07 04:41:00,21.0,7.0,-100.00,WSW,250,27.0,37.0,55,0.00,,,-99.99,,2013-03-07 11:41:00,
2013-03-07 04:52:00,20.0,8.0,-100.00,West,261,22.0,37.0,58,0.00,,,-99.99,,2013-03-07 11:52:00,
2013-03-07 05:01:00,20.0,7.0,-100.00,West,271,17.0,26.0,58,0.00,,,-99.99,,2013-03-07 12:01:00,
2013-03-07 05:11:00,20.0,7.0,-100.00,West,271,17.0,27.0,58,0.00,,,-99.99,,2013-03-07 12:11:00,
2013-03-07 05:21:00,20.0,8.0,-100.00,West,263,22.0,34.0,59,0.00,,,-99.99,,2013-03-07 12:21:00,
2013-03-07 05:32:00,19.0,8.0,-100.00,West,263,17.0,27.0,61,0.00,,,-99.99,,2013-03-07 12:32:00,
2013-03-07 05:41:00,19.0,8.0,-100.00,WSW,258,19.0,32.0,60,0.00,,,-99.99,,2013-03-07 12:41:00,
2013-03-07 05:51:00,19.0,8.0,-100.00,West,268,15.0,26.0,62,0.00,,,-99.99,,2013-03-07 12:51:00,
2013-03-07 06:01:00,19.0,8.0,-100.00,West,263,17.0,26.0,62,0.00,,,-99.99,,2013-03-07 13:01:00,
2013-03-07 06:11:00,19.0,8.0,-100.00,West,263,18.0,29.0,62,0.00,,,-99.99,,2013-03-07 13:11:00,
2013-03-07 06:21:00,18.0,8.0,-100.00,WSW,258,18.0,26.0,63,0.00,,,-99.99,,2013-03-07 13:21:00,
2013-03-07 06:31:00,19.0,8.0,-100.00,West,265,17.0,27.0,63,0.00,,,-99.99,,2013-03-07 13:31:00,
2013-03-07 06:41:00,18.0,8.0,-100.00,West,264,17.0,29.0,63,0.00,,,-99.99,,2013-03-07 13:41:00,
2013-03-07 06:52:00,18.0,8.0,-100.00,West,264,16.0,28.0,64,0.00,,,-99.99,,2013-03-07 13:52:00,
2013-03-07 07:01:00,18.0,8.0,-100.00,West,261,19.0,29.0,62,0.00,,,-99.99,,2013-03-07 14:01:00,
2013-03-07 07:11:00,19.0,8.0,-100.00,WSW,256,20.0,29.0,62,0.00,,,-99.99,,2013-03-07 14:11:00,
2013-03-07 07:21:00,19.0,8.0,-100.00,West,261,17.0,29.0,62,0.00,,,-99.99,,2013-03-07 14:21:00,
2013-03-07 07:31:00,18.0,8.0,-100.00,West,261,16.0,24.0,62,0.00,,,-99.99,,2013-03-07 14:31:00,
2013-03-07 07:41:00,18.0,8.0,-100.00,West,260,15.0,26.0,62,0.00,,,-99.99,,2013-03-07 14:41:00,
2013-03-07 07:52:00,18.0,8.0,-100.00,West,264,11.0,19.0,63,0.00,,,-99.99,,2013-03-07 14:52:00,
2013-03-07 08:03:00,-999.0,-99.9,-100.00,West,263,13.0,26.0,-999,-99.99,,,-99.99,,2013-03-07 15:03:00,
2013-03-07 08:11:00,18.0,8.0,-100.00,West,265,12.0,19.0,62,0.00,,,-99.99,,2013-03-07 15:11:00,
2013-03-07 08:31:00,19.0,8.0,-100.00,WSW,258,16.0,27.0,61,0.00,,,-99.99,,2013-03-07 15:31:00,
2013-03-07 08:41:00,20.0,8.0,-100.00,West,265,16.0,26.0,59,0.00,,,-99.99,,2013-03-07 15:41:00,
2013-03-07 08:51:00,20.0,9.0,-100.00,West,263,16.0,23.0,62,0.00,,,-99.99,,2013-03-07 15:51:00,
2013-03-07 09:01:00,19.0,10.0,-100.00,West,274,16.0,24.0,65,0.00,,,-99.99,,2013-03-07 16:01:00,
2013-03-07 09:11:00,20.0,10.0,-100.00,West,274,17.0,24.0,65,0.00,,,-99.99,,2013-03-07 16:11:00,
2013-03-07 09:21:00,20.0,9.0,-100.00,West,274,16.0,26.0,63,0.00,,,-99.99,,2013-03-07 16:21:00,
2013-03-07 09:31:00,21.0,9.0,-100.00,West,271,14.0,23.0,60,0.00,,,-99.99,,2013-03-07 16:31:00,
2013-03-07 09:41:00,21.0,8.0,-100.00,West,270,17.0,26.0,56,0.00,,,-99.99,,2013-03-07 16:41:00,
2013-03-07 09:52:00,22.0,8.0,-100.00,West,268,17.0,27.0,55,0.00,,,-99.99,,2013-03-07 16:52:00,
2013-03-07 10:01:00,22.0,8.0,-100.00,WSW,258,20.0,29.0,55,0.00,,,-99.99,,2013-03-07 17:01:00,
2013-03-07 10:11:00,22.0,8.0,-100.00,West,261,19.0,29.0,54,0.00,,,-99.99,,2013-03-07 17:11:00,
2013-03-07 10:21:00,23.0,9.0,-100.00,West,260,20.0,29.0,54,0.00,,,-99.99,,2013-03-07 17:21:00,
2013-03-07 10:31:00,24.0,8.0,-100.00,West,264,18.0,25.0,52,0.00,,,-99.99,,2013-03-07 17:31:00,
2013-03-07 10:41:00,24.0,8.0,-100.00,West,263,20.0,26.0,51,0.00,,,-99.99,,2013-03-07 17:41:00,
2013-03-07 10:52:00,24.0,8.0,-100.00,West,260,22.0,31.0,49,0.00,,,-99.99,,2013-03-07 17:52:00,
2013-03-07 11:01:00,26.0,9.0,-100.00,West,261,19.0,29.0,49,0.00,,,-99.99,,2013-03-07 18:01:00,
2013-03-07 11:11:00,26.0,9.0,-100.00,West,261,19.0,29.0,49,0.00,,,-99.99,,2013-03-07 18:11:00,
2013-03-07 11:21:00,26.0,8.0,-100.00,West,263,16.0,23.0,46,0.00,,,-99.99,,2013-03-07 18:21:00,
2013-03-07 11:31:00,26.0,8.0,-100.00,WSW,258,17.0,24.0,46,0.00,,,-99.99,,2013-03-07 18:31:00,
2013-03-07 11:41:00,26.0,7.0,-100.00,West,260,15.0,24.0,44,0.00,,,-99.99,,2013-03-07 18:41:00,
2013-03-07 11:51:00,28.0,8.0,-100.00,WSW,256,16.0,21.0,44,0.00,,,-99.99,,2013-03-07 18:51:00,
2013-03-07 12:01:00,28.0,8.0,-100.00,West,264,15.0,22.0,43,0.00,,,-99.99,,2013-03-07 19:01:00,
2013-03-07 12:11:00,28.0,8.0,-100.00,West,263,16.0,22.0,42,0.00,,,-99.99,,2013-03-07 19:11:00,
2013-03-07 12:21:00,30.0,8.0,-100.00,West,264,14.0,21.0,39,0.00,,,-99.99,,2013-03-07 19:21:00,
2013-03-07 12:31:00,29.0,7.0,-100.00,WSW,258,14.0,21.0,39,0.00,,,-99.99,,2013-03-07 19:31:00,
2013-03-07 12:42:00,31.0,8.0,-100.00,West,263,9.0,20.0,38,0.00,,,-99.99,,2013-03-07 19:42:00,
2013-03-07 12:51:00,30.0,6.0,-100.00,West,260,11.0,20.0,36,0.00,,,-99.99,,2013-03-07 19:51:00,
2013-03-07 13:01:00,31.0,8.0,-100.00,West,272,10.0,19.0,36,0.00,,,-99.99,,2013-03-07 20:01:00,
2013-03-07 13:14:00,-999.0,-99.9,-100.00,West,275,12.0,19.0,-999,-99.99,,,-99.99,,2013-03-07 20:14:00,
2013-03-07 13:21:00,32.0,9.0,-100.00,West,278,7.0,18.0,38,0.00,,,-99.99,,2013-03-07 20:21:00,
2013-03-07 13:31:00,32.0,7.0,-100.00,West,281,9.0,16.0,34,0.00,,,-99.99,,2013-03-07 20:31:00,
2013-03-07 13:41:00,32.0,8.0,-100.00,West,281,9.0,16.0,37,0.00,,,-99.99,,2013-03-07 20:41:00,
2013-03-07 13:52:00,31.0,8.0,-100.00,West,272,11.0,19.0,36,0.00,,,-99.99,,2013-03-07 20:52:00,
2013-03-07 14:01:00,31.0,6.0,-100.00,West,265,11.0,17.0,33,0.00,,,-99.99,,2013-03-07 21:01:00,
2013-03-07 14:11:00,32.0,6.0,-100.00,West,281,9.0,17.0,32,0.00,,,-99.99,,2013-03-07 21:11:00,
2013-03-07 14:21:00,32.0,7.0,-100.00,West,281,8.0,17.0,33,0.00,,,-99.99,,2013-03-07 21:21:00,
2013-03-07 14:31:00,34.0,7.0,-100.00,WNW,285,9.0,18.0,32,0.00,,,-99.99,,2013-03-07 21:31:00,
2013-03-07 14:41:00,33.0,6.0,-100.00,WNW,289,11.0,18.0,32,0.00,,,-99.99,,2013-03-07 21:41:00,
2013-03-07 14:52:00,32.0,7.0,-100.00,WNW,287,10.0,17.0,34,0.00,,,-99.99,,2013-03-07 21:52:00,
2013-03-07 15:01:00,32.0,6.0,-100.00,WNW,288,9.0,16.0,33,0.00,,,-99.99,,2013-03-07 22:01:00,
2013-03-07 15:11:00,33.0,6.0,-100.00,WNW,285,9.0,17.0,32,0.00,,,-99.99,,2013-03-07 22:11:00,
2013-03-07 15:21:00,31.0,5.0,-100.00,WNW,292,11.0,19.0,32,0.00,,,-99.99,,2013-03-07 22:21:00,
2013-03-07 15:31:00,32.0,6.0,-100.00,WNW,295,11.0,18.0,32,0.00,,,-99.99,,2013-03-07 22:31:00,
2013-03-07 15:41:00,31.0,5.0,-100.00,WNW,295,9.0,16.0,32,0.00,,,-99.99,,2013-03-07 22:41:00,
2013-03-07 15:52:00,31.0,4.0,-100.00,WNW,291,7.0,15.0,31,0.00,,,-99.99,,2013-03-07 22:52:00,
2013-03-07 16:01:00,32.0,4.0,-100.00,WNW,288,7.0,14.0,29,0.00,,,-99.99,,2013-03-07 23:01:00,
2013-03-07 16:21:00,31.0,3.0,-100.00,WNW,299,7.0,12.0,30,0.00,,,-99.99,,2013-03-07 23:21:00,
2013-03-07 16:31:00,31.0,3.0,-100.00,NW,304,6.0,11.0,29,0.00,,,-99.99,,2013-03-07 23:31:00,
2013-03-07 16:41:00,31.0,2.0,-100.00,NW,305,5.0,9.0,29,0.00,,,-99.99,,2013-03-07 23:41:00,
2013-03-07 17:01:00,30.0,1.0,-100.00,NW,305,4.0,7.0,29,0.00,,,-99.99,,2013-03-08 00:01:00,
2013-03-07 17:21:00,30.0,2.0,-100.00,NW,312,3.0,6.0,31,0.00,,,-99.99,,2013-03-08 00:21:00,
2013-03-07 17:31:00,29.0,2.0,-100.00,NNW,342,4.0,6.0,31,0.00,,,-99.99,,2013-03-08 00:31:00,
2013-03-07 17:52:00,28.0,8.0,-100.00,NE,38,7.0,12.0,42,0.00,,,-99.99,,2013-03-08 00:52:00,
2013-03-07 18:01:00,28.0,8.0,-100.00,NE,49,9.0,13.0,42,0.00,,,-99.99,,2013-03-08 01:01:00,
2013-03-07 18:11:00,27.0,9.0,-100.00,NE,45,9.0,15.0,45,0.00,,,-99.99,,2013-03-08 01:11:00,
2013-03-07 18:21:00,27.0,10.0,-100.00,NNE,25,7.0,10.0,48,0.00,,,-99.99,,2013-03-08 01:21:00,
2013-03-07 18:31:00,27.0,10.0,-100.00,ENE,62,6.0,9.0,48,0.00,,,-99.99,,2013-03-08 01:31:00,
2013-03-07 18:41:00,27.0,9.0,-100.00,ENE,58,7.0,10.0,46,0.00,,,-99.99,,2013-03-08 01:41:00,
2013-03-07 18:51:00,27.0,9.0,-100.00,NE,52,7.0,9.0,46,0.00,,,-99.99,,2013-03-08 01:51:00,
2013-03-07 19:01:00,26.0,9.0,-100.00,NE,51,6.0,9.0,48,0.00,,,-99.99,,2013-03-08 02:01:00,
2013-03-07 19:11:00,26.0,9.0,-100.00,NE,47,6.0,9.0,48,0.00,,,-99.99,,2013-03-08 02:11:00,
2013-03-07 19:21:00,26.0,9.0,-100.00,ENE,59,6.0,9.0,50,0.00,,,-99.99,,2013-03-08 02:21:00,
2013-03-07 19:31:00,26.0,9.0,-100.00,ENE,72,6.0,7.0,49,0.00,,,-99.99,,2013-03-08 02:31:00,
2013-03-07 19:41:00,26.0,9.0,-100.00,East,80,8.0,11.0,49,0.00,,,-99.99,,2013-03-08 02:41:00,
2013-03-07 19:52:00,25.0,9.0,-100.00,ENE,73,8.0,10.0,49,0.00,,,-99.99,,2013-03-08 02:52:00,
2013-03-07 20:01:00,25.0,9.0,-100.00,ENE,76,7.0,11.0,49,0.00,,,-99.99,,2013-03-08 03:01:00,
2013-03-07 20:11:00,25.0,9.0,-100.00,ENE,76,8.0,11.0,49,0.00,,,-99.99,,2013-03-08 03:11:00,
2013-03-07 20:21:00,25.0,8.0,-100.00,ENE,76,7.0,9.0,47,0.00,,,-99.99,,2013-03-08 03:21:00,
2013-03-07 20:31:00,25.0,8.0,-100.00,East,79,7.0,10.0,47,0.00,,,-99.99,,2013-03-08 03:31:00,
2013-03-07 20:41:00,25.0,7.0,-100.00,East,80,7.0,9.0,45,0.00,,,-99.99,,2013-03-08 03:41:00,
2013-03-07 20:52:00,25.0,7.0,-100.00,East,83,7.0,9.0,45,0.00,,,-99.99,,2013-03-08 03:52:00,
2013-03-07 21:01:00,25.0,8.0,-100.00,East,82,6.0,7.0,47,0.00,,,-99.99,,2013-03-08 04:01:00,
2013-03-07 21:11:00,25.0,7.0,-100.00,East,85,6.0,7.0,45,0.00,,,-99.99,,2013-03-08 04:11:00,
2013-03-07 21:21:00,25.0,8.0,-100.00,East,89,5.0,7.0,48,0.00,,,-99.99,,2013-03-08 04:21:00,
2013-03-07 21:31:00,26.0,9.0,-100.00,East,93,6.0,9.0,49,0.00,,,-99.99,,2013-03-08 04:31:00,
2013-03-07 21:42:00,25.0,8.0,-100.00,East,95,5.0,7.0,47,0.00,,,-99.99,,2013-03-08 04:42:00,
2013-03-07 22:01:00,25.0,8.0,-100.00,ENE,78,2.0,4.0,48,0.00,,,-99.99,,2013-03-08 05:01:00,
2013-03-07 22:11:00,25.0,9.0,-100.00,East,92,1.0,4.0,51,0.00,,,-99.99,,2013-03-08 05:11:00,
2013-03-07 22:22:00,25.0,10.0,-100.00,West,278,1.0,4.0,52,0.00,,,-99.99,,2013-03-08 05:22:00,
2013-03-07 22:31:00,24.0,12.0,-100.00,WSW,244,4.0,7.0,58,0.00,,,-99.99,,2013-03-08 05:31:00,
2013-03-07 22:42:00,24.0,11.0,-100.00,SW,223,2.0,6.0,55,0.00,,,-99.99,,2013-03-08 05:42:00,
2013-03-07 22:52:00,24.0,10.0,-100.00,NE,38,1.0,3.0,54,0.00,,,-99.99,,2013-03-08 05:52:00,
2013-03-07 23:01:00,24.0,11.0,-100.00,NNE,24,1.0,2.0,55,0.00,,,-99.99,,2013-03-08 06:01:00,
2013-03-07 23:11:00,24.0,10.0,-100.00,East,85,1.0,2.0,55,0.00,,,-99.99,,2013-03-08 06:11:00,
2013-03-07 23:21:00,24.0,11.0,-100.00,NE,55,2.0,4.0,57,0.00,,,-99.99,,2013-03-08 06:21:00,
2013-03-07 23:31:00,24.0,11.0,-100.00,NE,49,1.0,3.0,57,0.00,,,-99.99,,2013-03-08 06:31:00,
2013-03-07 23:41:00,24.0,9.0,-100.00,NNE,30,1.0,4.0,53,0.00,,,-99.99,,2013-03-08 06:41:00,
2013-03-07 23:51:00,24.0,11.0,-100.00,East,90,1.0,2.0,56,0.00,,,-99.99,,2013-03-08 06:51:00,